createdAt,value
2022-12-07T00:01:17.363Z,137.53
2022-12-07T00:03:45.137Z,118.93
2022-12-07T00:06:12.538Z,147.93
2022-12-07T00:08:39.223Z,174.23
2022-12-07T00:11:10.253Z,218.53
2022-12-07T00:13:37.245Z,153.77
2022-12-07T00:16:05.134Z,163.50
2022-12-07T00:18:31.787Z,159.93
2022-12-07T00:21:05.750Z,207.17
2022-12-07T00:23:32.542Z,250.33
2022-12-07T00:26:04.214Z,295.13
2022-12-07T00:28:30.609Z,207.70
2022-12-07T00:31:04.139Z,340.43
2022-12-07T00:33:30.789Z,132.00
2022-12-07T00:35:58.252Z,153.40
2022-12-07T00:38:24.887Z,247.70
2022-12-07T00:40:55.419Z,242.17
2022-12-07T00:43:21.848Z,189.50
2022-12-07T00:45:48.351Z,218.67
2022-12-07T00:48:14.876Z,246.50
2022-12-07T00:50:41.326Z,233.57
2022-12-07T00:53:07.781Z,357.33
2022-12-07T00:55:34.580Z,164.57
2022-12-07T00:58:01.043Z,200.77
2022-12-07T01:00:27.501Z,197.10
2022-12-07T01:02:54.038Z,173.90
2022-12-07T01:05:20.564Z,161.43
2022-12-07T01:07:47.719Z,194.00
2022-12-07T01:10:15.054Z,201.70
2022-12-07T01:12:41.806Z,188.27
2022-12-07T01:15:09.066Z,146.03
2022-12-07T01:17:35.555Z,113.37
2022-12-07T01:20:02.557Z,194.33
2022-12-07T01:22:44.870Z,229.42
2022-12-07T01:25:12.109Z,179.57
2022-12-07T01:27:38.660Z,182.67
2022-12-07T01:30:07.399Z,109.00
2022-12-07T01:32:34.177Z,181.63
2022-12-07T01:35:00.592Z,150.40
2022-12-07T01:37:27.670Z,195.50
2022-12-07T01:39:57.155Z,142.60
2022-12-07T01:42:23.624Z,182.27
2022-12-07T01:45:08.891Z,200.47
2022-12-07T01:47:35.438Z,184.67
2022-12-07T01:50:02.098Z,190.03
2022-12-07T01:52:30.090Z,154.23
2022-12-07T01:54:59.417Z,224.67
2022-12-07T01:57:25.954Z,103.00
2022-12-07T01:59:53.115Z,176.60
2022-12-07T02:02:20.930Z,96.33
2022-12-07T02:04:47.439Z,160.53
2022-12-07T02:07:14.095Z,170.57
2022-12-07T02:09:40.535Z,248.80
2022-12-07T02:12:07.204Z,173.10
2022-12-07T02:14:34.021Z,205.10
2022-12-07T02:17:08.860Z,174.30
2022-12-07T02:19:47.643Z,181.50
2022-12-07T02:22:14.076Z,118.80
2022-12-07T02:24:46.814Z,93.90
2022-12-07T02:27:32.241Z,225.83
2022-12-07T02:30:01.523Z,219.20
2022-12-07T02:32:28.441Z,89.13
2022-12-07T02:35:30.544Z,255.63
2022-12-07T02:37:56.964Z,221.70
2022-12-07T02:40:28.205Z,232.93
2022-12-07T02:42:58.514Z,250.37
2022-12-07T02:45:26.756Z,175.13
2022-12-07T02:47:56.029Z,185.00
2022-12-07T02:50:22.611Z,182.43
2022-12-07T02:52:49.260Z,172.05
2022-12-07T02:55:18.477Z,220.50
2022-12-07T02:57:52.465Z,157.63
2022-12-07T03:00:20.257Z,175.30
2022-12-07T03:02:53.967Z,122.57
2022-12-07T03:05:39.437Z,107.53
2022-12-07T03:08:30.551Z,193.47
2022-12-07T03:11:05.440Z,135.23
2022-12-07T03:13:31.840Z,134.90
2022-12-07T03:16:10.569Z,183.03
2022-12-07T03:18:39.857Z,192.50
2022-12-07T03:21:13.346Z,176.97
2022-12-07T03:23:41.872Z,108.73
2022-12-07T03:26:10.821Z,75.50
2022-12-07T03:28:39.361Z,239.03
2022-12-07T03:31:18.307Z,139.53
2022-12-07T03:33:57.350Z,107.07
2022-12-07T03:36:47.723Z,167.93
2022-12-07T03:39:32.335Z,190.80
2022-12-07T03:42:00.526Z,135.50
2022-12-07T03:44:27.446Z,170.40
2022-12-07T03:47:03.562Z,82.13
2022-12-07T03:49:30.018Z,121.63
2022-12-07T03:52:15.346Z,119.90
2022-12-07T03:54:45.649Z,131.90
2022-12-07T03:57:14.871Z,81.93
2022-12-07T03:59:42.556Z,121.90
2022-12-07T04:02:11.947Z,142.93
2022-12-07T04:04:38.450Z,185.50
2022-12-07T04:07:05.049Z,96.33
2022-12-07T04:09:31.499Z,88.67
2022-12-07T04:11:57.994Z,116.20
2022-12-07T04:14:24.519Z,133.83
2022-12-07T04:16:54.090Z,156.77
2022-12-07T04:19:21.728Z,101.80
2022-12-07T04:21:48.626Z,197.80
2022-12-07T04:24:15.439Z,171.83
2022-12-07T04:26:42.290Z,170.93
2022-12-07T04:29:09.617Z,149.27
2022-12-07T04:31:36.611Z,102.27
2022-12-07T04:34:04.107Z,285.20
2022-12-07T04:36:31.169Z,189.20
2022-12-07T04:38:57.759Z,209.30
2022-12-07T04:41:27.996Z,154.00
2022-12-07T04:44:04.376Z,175.20
2022-12-07T04:46:31.909Z,73.40
2022-12-07T04:48:58.709Z,181.60
2022-12-07T04:51:29.324Z,263.50
2022-12-07T04:53:56.492Z,132.33
2022-12-07T04:56:23.712Z,134.20
2022-12-07T04:58:50.318Z,122.70
2022-12-07T05:01:18.023Z,154.10
2022-12-07T05:03:44.531Z,95.93
2022-12-07T05:06:13.553Z,165.63
2022-12-07T05:08:40.516Z,141.80
2022-12-07T05:11:07.866Z,104.77
2022-12-07T05:13:34.315Z,82.37
2022-12-07T05:16:00.872Z,122.83
2022-12-07T05:18:27.370Z,39.87
2022-12-07T05:20:53.939Z,60.97
2022-12-07T05:23:20.489Z,86.77
2022-12-07T05:25:47.346Z,54.47
2022-12-07T05:28:13.811Z,127.40
2022-12-07T05:30:40.230Z,71.70
2022-12-07T05:33:06.684Z,60.37
2022-12-07T05:35:33.208Z,61.47
2022-12-07T05:37:59.691Z,62.20
2022-12-07T05:40:26.164Z,79.13
2022-12-07T05:42:52.623Z,114.57
2022-12-07T05:45:19.084Z,107.53
2022-12-07T05:47:45.631Z,58.60
2022-12-07T05:50:12.068Z,82.03
2022-12-07T05:52:38.516Z,38.67
2022-12-07T05:55:05.221Z,72.07
2022-12-07T05:57:31.634Z,64.37
2022-12-07T05:59:58.159Z,77.47
2022-12-07T06:02:24.749Z,59.73
2022-12-07T06:04:51.333Z,87.33
2022-12-07T06:07:17.887Z,83.43
2022-12-07T06:09:44.404Z,52.63
2022-12-07T06:12:30.178Z,37.27
2022-12-07T06:14:56.715Z,77.73
2022-12-07T06:17:23.314Z,63.60
2022-12-07T06:19:49.727Z,75.07
2022-12-07T06:22:17.166Z,93.13
2022-12-07T06:24:43.649Z,135.47
2022-12-07T06:27:10.110Z,78.43
2022-12-07T06:29:36.719Z,99.63
2022-12-07T06:32:03.843Z,81.37
2022-12-07T06:34:30.468Z,52.63
2022-12-07T06:36:58.150Z,87.57
2022-12-07T06:39:25.749Z,47.57
2022-12-07T06:41:53.060Z,117.40
2022-12-07T06:44:19.924Z,154.00
2022-12-07T06:46:48.505Z,110.83
2022-12-07T06:49:15.076Z,99.73
2022-12-07T06:51:42.972Z,126.03
2022-12-07T06:54:13.972Z,84.03
2022-12-07T06:56:40.936Z,72.53
2022-12-07T06:59:07.844Z,88.37
2022-12-07T07:01:35.008Z,102.70
2022-12-07T07:04:01.923Z,62.73
2022-12-07T07:06:28.648Z,69.73
2022-12-07T07:09:03.976Z,103.27
2022-12-07T07:11:31.531Z,53.13
2022-12-07T07:14:00.155Z,86.00
2022-12-07T07:16:26.719Z,78.83
2022-12-07T07:18:53.501Z,79.60
2022-12-07T07:21:20.068Z,69.27
2022-12-07T07:23:46.527Z,87.23
2022-12-07T07:26:13.067Z,58.03
2022-12-07T07:28:39.922Z,72.13
2022-12-07T07:31:06.786Z,54.00
2022-12-07T07:33:34.712Z,116.37
2022-12-07T07:36:02.376Z,68.47
2022-12-07T07:38:33.139Z,87.83
2022-12-07T07:41:02.098Z,77.70
2022-12-07T07:43:28.588Z,50.93
2022-12-07T07:45:55.182Z,75.67
2022-12-07T07:48:23.713Z,71.93
2022-12-07T07:50:50.395Z,80.00
2022-12-07T07:53:18.371Z,73.93
2022-12-07T07:55:54.454Z,98.03
2022-12-07T07:58:21.645Z,63.97
2022-12-07T08:00:48.309Z,108.50
2022-12-07T08:03:15.530Z,124.60
2022-12-07T08:05:43.191Z,68.27
2022-12-07T08:08:10.864Z,71.10
2022-12-07T08:10:40.863Z,102.10
2022-12-07T08:13:14.572Z,55.47
2022-12-07T08:15:42.498Z,57.40
2022-12-07T08:18:09.354Z,72.43
2022-12-07T08:20:38.706Z,91.43
2022-12-07T08:23:05.624Z,71.37
2022-12-07T08:25:32.626Z,73.27
2022-12-07T08:27:59.210Z,110.57
2022-12-07T08:30:25.819Z,55.27
2022-12-07T08:32:52.462Z,56.67
2022-12-07T08:35:19.142Z,91.97
2022-12-07T08:37:45.966Z,75.37
2022-12-07T08:40:18.131Z,101.50
2022-12-07T08:42:46.121Z,49.50
2022-12-07T08:45:14.196Z,62.10
2022-12-07T08:47:50.381Z,70.50
2022-12-07T08:50:19.563Z,57.20
2022-12-07T08:52:48.516Z,69.33
2022-12-07T08:55:15.310Z,72.73
2022-12-07T08:57:41.914Z,60.90
2022-12-07T09:03:38.799Z,49.50
2022-12-07T09:06:06.691Z,44.10
2022-12-07T09:08:39.679Z,89.77
2022-12-07T09:11:09.895Z,73.90
2022-12-07T09:13:36.439Z,80.63
2022-12-07T09:16:03.125Z,65.60
2022-12-07T09:18:29.859Z,91.53
2022-12-07T09:20:57.238Z,83.20
2022-12-07T09:23:24.054Z,65.57
2022-12-07T09:25:50.834Z,61.80
2022-12-07T09:28:17.424Z,46.83
2022-12-07T09:31:21.548Z,42.63
2022-12-07T09:33:34.859Z,47.63
2022-12-07T09:36:01.398Z,36.63
2022-12-07T09:38:31.210Z,44.93
2022-12-07T09:40:57.907Z,55.00
2022-12-07T09:43:27.174Z,40.63
2022-12-07T09:45:55.715Z,47.03
2022-12-07T09:48:34.858Z,44.80
2022-12-07T09:51:01.798Z,28.40
2022-12-07T09:53:33.634Z,45.77
2022-12-07T09:56:00.647Z,43.13
2022-12-07T09:58:31.185Z,35.63
2022-12-07T10:01:05.156Z,48.87
2022-12-07T10:03:34.841Z,37.87
2022-12-07T10:06:02.463Z,41.50
2022-12-07T10:08:29.038Z,41.17
2022-12-07T10:10:59.452Z,47.53
2022-12-07T10:13:36.725Z,40.97
2022-12-07T10:16:06.947Z,32.97
2022-12-07T10:18:37.055Z,33.07
2022-12-07T10:21:25.444Z,26.20
2022-12-07T10:24:12.464Z,39.90
2022-12-07T10:26:39.112Z,28.40
2022-12-07T10:29:16.612Z,28.23
2022-12-07T10:31:43.272Z,38.33
2022-12-07T10:34:29.949Z,32.53
2022-12-07T10:37:17.845Z,31.47
2022-12-07T10:39:45.780Z,20.20
2022-12-07T10:42:23.512Z,24.20
2022-12-07T10:44:51.053Z,24.77
2022-12-07T10:47:30.058Z,15.57
2022-12-07T10:49:56.655Z,27.27
2022-12-07T10:52:32.056Z,27.30
2022-12-07T10:55:08.072Z,27.03
2022-12-07T10:57:45.750Z,21.60
2022-12-07T11:00:16.819Z,28.93
2022-12-07T11:02:47.011Z,23.70
2022-12-07T11:05:25.449Z,18.33
2022-12-07T11:07:58.039Z,22.25
2022-12-07T11:10:33.813Z,22.65
2022-12-07T11:13:17.545Z,19.63
2022-12-07T11:15:54.690Z,20.37
2022-12-07T11:18:39.349Z,17.40
2022-12-07T11:21:05.821Z,20.48
2022-12-07T11:23:32.272Z,12.93
2022-12-07T11:26:07.205Z,14.70
2022-12-07T11:28:49.197Z,17.80
2022-12-07T11:31:34.596Z,12.23
2022-12-07T11:34:13.105Z,15.52
2022-12-07T11:36:44.908Z,11.68
2022-12-07T11:39:31.575Z,16.83
2022-12-07T11:42:03.171Z,13.27
2022-12-07T11:44:36.709Z,16.00
2022-12-07T11:47:08.399Z,16.07
2022-12-07T11:49:53.571Z,10.38
2022-12-07T11:52:23.416Z,16.90
2022-12-07T11:54:50.905Z,11.13
2022-12-07T11:57:21.569Z,13.52
2022-12-07T11:59:51.486Z,14.90
2022-12-07T12:02:25.077Z,14.40
2022-12-07T12:05:03.085Z,15.13
2022-12-07T12:10:16.093Z,16.65
2022-12-07T12:15:35.737Z,10.07
2022-12-07T12:18:02.165Z,16.10
2022-12-07T12:20:38.349Z,15.32
2022-12-07T12:23:25.090Z,20.85
2022-12-07T12:25:59.210Z,17.77
2022-12-07T12:28:26.082Z,22.23
2022-12-07T12:31:06.342Z,11.30
2022-12-07T12:33:33.369Z,14.75
2022-12-07T12:36:18.736Z,10.60
2022-12-07T12:39:03.843Z,12.60
2022-12-07T12:41:36.508Z,9.30
2022-12-07T12:44:04.038Z,11.70
2022-12-07T12:46:37.659Z,13.52
2022-12-07T12:49:22.632Z,12.60
2022-12-07T12:51:59.392Z,13.10
2022-12-07T12:54:30.693Z,9.25
2022-12-07T12:57:00.157Z,10.93
2022-12-07T12:59:29.840Z,14.80
2022-12-07T13:01:57.983Z,12.50
2022-12-07T13:04:27.892Z,10.80
2022-12-07T13:06:54.813Z,9.40
2022-12-07T13:09:23.833Z,9.80
2022-12-07T13:12:00.163Z,10.32
2022-12-07T13:14:44.693Z,11.52
2022-12-07T13:17:12.912Z,11.10
2022-12-07T13:19:44.617Z,9.40
2022-12-07T13:22:29.999Z,8.63
2022-12-07T13:25:13.940Z,12.73
2022-12-07T13:27:42.013Z,10.52
2022-12-07T13:30:19.895Z,11.02
2022-12-07T13:32:53.904Z,11.10
2022-12-07T13:35:35.700Z,8.88
2022-12-07T13:38:05.888Z,10.75
2022-12-07T13:40:33.192Z,9.25
2022-12-07T13:43:02.356Z,9.20
2022-12-07T13:45:51.022Z,14.73
2022-12-07T13:48:34.842Z,10.93
2022-12-07T13:51:02.682Z,11.27
2022-12-07T13:53:31.768Z,8.32
2022-12-07T13:55:59.303Z,8.82
2022-12-07T13:58:27.604Z,10.95
2022-12-07T14:00:54.385Z,10.73
2022-12-07T14:03:32.131Z,14.63
2022-12-07T14:06:07.775Z,8.65
2022-12-07T14:08:34.814Z,11.52
2022-12-07T14:11:01.812Z,10.98
2022-12-07T14:13:32.905Z,8.75
2022-12-07T14:15:59.856Z,8.00
2022-12-07T14:18:40.287Z,8.73
2022-12-07T14:21:07.964Z,8.98
2022-12-07T14:23:36.584Z,8.83
2022-12-07T14:26:12.662Z,7.75
2022-12-07T14:28:42.098Z,8.88
2022-12-07T14:31:22.707Z,7.50
2022-12-07T14:33:51.760Z,7.60
2022-12-07T14:36:18.186Z,9.07
2022-12-07T14:38:44.667Z,13.68
2022-12-07T14:41:34.166Z,11.70
2022-12-07T14:44:22.445Z,10.70
2022-12-07T14:46:48.221Z,11.88
2022-12-07T14:54:47.910Z,11.02
2022-12-07T14:57:14.372Z,11.05
2022-12-07T14:59:45.039Z,11.57
2022-12-07T15:02:15.369Z,9.00
2022-12-07T15:04:42.294Z,7.47
2022-12-07T15:07:15.774Z,10.20
2022-12-07T15:09:42.392Z,10.80
2022-12-07T15:12:08.897Z,12.80
2022-12-07T15:14:35.409Z,14.93
2022-12-07T15:17:12.588Z,11.57
2022-12-07T15:19:43.445Z,9.85
2022-12-07T15:22:11.817Z,13.20
2022-12-07T15:24:38.643Z,12.87
2022-12-07T15:27:05.156Z,9.00
2022-12-07T15:29:31.629Z,9.93
2022-12-07T15:31:58.705Z,11.87
2022-12-07T15:34:26.395Z,14.40
2022-12-07T15:36:52.949Z,13.50
2022-12-07T15:39:19.533Z,14.13
2022-12-07T15:41:46.072Z,16.20
2022-12-07T15:44:31.650Z,19.90
2022-12-07T15:46:58.275Z,19.83
2022-12-07T15:49:25.091Z,21.97
2022-12-07T15:51:51.591Z,17.75
2022-12-07T15:54:22.200Z,19.20
2022-12-07T15:56:48.768Z,21.33
2022-12-07T15:59:15.556Z,20.85
2022-12-07T16:01:42.156Z,17.03
2022-12-07T16:04:08.784Z,19.53
2022-12-07T16:06:35.510Z,12.70
2022-12-07T16:09:02.190Z,14.60
2022-12-07T16:11:28.797Z,12.43
2022-12-07T16:13:55.287Z,12.60
2022-12-07T16:16:23.422Z,11.97
2022-12-07T16:18:50.362Z,13.83
2022-12-07T16:21:21.882Z,12.77
2022-12-07T16:23:51.503Z,14.27
2022-12-07T16:26:19.302Z,12.25
2022-12-07T16:28:45.964Z,12.20
2022-12-07T16:31:14.093Z,13.43
2022-12-07T16:33:41.568Z,13.17
2022-12-07T16:36:09.251Z,17.50
2022-12-07T16:38:36.153Z,12.93
2022-12-07T16:41:02.772Z,12.33
2022-12-07T16:43:29.336Z,16.97
2022-12-07T16:45:55.823Z,12.53
2022-12-07T16:48:22.310Z,11.80
2022-12-07T16:50:51.432Z,13.32
2022-12-07T16:53:18.204Z,14.20
2022-12-07T16:55:45.777Z,17.53
2022-12-07T16:58:13.573Z,15.37
2022-12-07T17:00:40.873Z,17.43
2022-12-07T17:03:07.614Z,17.27
2022-12-07T17:05:34.459Z,17.10
2022-12-07T17:08:02.353Z,19.13
2022-12-07T17:10:28.861Z,17.37
2022-12-07T17:12:55.299Z,19.63
2022-12-07T17:15:22.051Z,20.93
2022-12-07T17:17:55.994Z,20.23
2022-12-07T17:20:24.288Z,20.20
2022-12-07T17:22:50.783Z,22.07
2022-12-07T17:25:17.473Z,22.07
2022-12-07T17:27:46.313Z,26.30
2022-12-07T17:30:14.524Z,24.20
2022-12-07T17:32:42.944Z,23.30
2022-12-07T17:35:09.717Z,26.80
2022-12-07T17:37:36.309Z,28.83
2022-12-07T17:40:02.939Z,22.83
2022-12-07T17:42:40.390Z,25.50
2022-12-07T17:45:09.275Z,31.80
2022-12-07T17:47:37.159Z,27.17
2022-12-07T17:50:07.289Z,24.73
2022-12-07T17:52:56.874Z,25.60
2022-12-07T17:55:23.587Z,28.83
2022-12-07T17:57:50.178Z,30.23
2022-12-07T18:00:17.158Z,27.13
2022-12-07T18:02:43.735Z,26.43
2022-12-07T18:05:11.281Z,28.33
2022-12-07T18:07:38.363Z,25.15
2022-12-07T18:10:07.439Z,25.73
2022-12-07T18:12:34.091Z,27.23
2022-12-07T18:15:00.881Z,31.80
2022-12-07T18:17:29.990Z,34.37
2022-12-07T18:19:57.678Z,39.38
2022-12-07T18:22:25.198Z,39.50
2022-12-07T18:24:51.767Z,33.47
2022-12-07T18:27:18.413Z,35.60
2022-12-07T18:29:44.998Z,37.85
2022-12-07T18:32:13.065Z,40.63
2022-12-07T18:34:41.320Z,44.27
2022-12-07T18:37:10.003Z,40.80
2022-12-07T18:39:37.627Z,37.80
2022-12-07T18:42:04.360Z,41.40
2022-12-07T18:44:32.402Z,38.13
2022-12-07T18:46:59.045Z,48.40
2022-12-07T18:49:25.904Z,38.53
2022-12-07T18:51:52.959Z,41.83
2022-12-07T18:54:19.529Z,40.77
2022-12-07T18:56:48.171Z,44.27
2022-12-07T18:59:33.008Z,46.17
2022-12-07T19:01:59.880Z,41.22
2022-12-07T19:04:26.483Z,43.57
2022-12-07T19:06:53.030Z,45.30
2022-12-07T19:09:20.437Z,42.40
2022-12-07T19:11:49.707Z,45.67
2022-12-07T19:14:35.352Z,41.27
2022-12-07T19:17:05.999Z,50.47
2022-12-07T19:19:35.588Z,55.67
2022-12-07T19:22:02.209Z,41.80
2022-12-07T19:24:28.763Z,41.70
2022-12-07T19:26:55.658Z,56.37
2022-12-07T19:29:22.538Z,59.40
2022-12-07T19:31:49.326Z,59.80
2022-12-07T19:34:17.182Z,50.07
2022-12-07T19:36:46.617Z,57.00
2022-12-07T19:39:15.396Z,46.63
2022-12-07T19:41:44.180Z,49.73
2022-12-07T19:44:13.429Z,43.77
2022-12-07T19:46:40.423Z,56.33
2022-12-07T19:49:10.128Z,58.57
2022-12-07T19:51:37.426Z,58.17
2022-12-07T19:54:04.118Z,72.27
2022-12-07T19:56:30.921Z,65.80
2022-12-07T19:58:59.114Z,57.63
2022-12-07T20:01:25.944Z,54.23
2022-12-07T20:03:52.458Z,54.47
2022-12-07T20:06:19.614Z,65.73
2022-12-07T20:08:47.127Z,57.63
2022-12-07T20:11:32.808Z,59.27
2022-12-07T20:13:59.264Z,52.47
2022-12-07T20:16:25.845Z,59.03
2022-12-07T20:18:57.325Z,63.43
2022-12-07T20:21:24.384Z,62.73
2022-12-07T20:23:50.856Z,63.53
2022-12-07T20:26:17.333Z,68.93
2022-12-07T20:28:46.758Z,68.87
2022-12-07T20:31:14.453Z,68.00
2022-12-07T20:33:41.757Z,80.27
2022-12-07T20:36:09.781Z,55.77
2022-12-07T20:38:36.361Z,57.53
2022-12-07T20:41:04.338Z,48.40
2022-12-07T20:43:31.216Z,65.07
2022-12-07T20:45:58.151Z,52.27
2022-12-07T20:48:24.823Z,68.07
2022-12-07T20:50:51.542Z,65.67
2022-12-07T20:53:18.090Z,75.20
2022-12-07T20:55:44.647Z,54.53
2022-12-07T20:58:11.429Z,66.87
2022-12-07T21:00:37.971Z,59.43
2022-12-07T21:03:04.925Z,56.90
2022-12-07T21:05:31.480Z,60.80
2022-12-07T21:07:57.978Z,78.53
2022-12-07T21:10:24.513Z,49.27
2022-12-07T21:12:55.511Z,62.23
2022-12-07T21:15:22.455Z,62.67
2022-12-07T21:17:48.937Z,62.50
2022-12-07T21:20:15.413Z,75.63
2022-12-07T21:22:41.850Z,58.33
2022-12-07T21:25:08.940Z,69.70
2022-12-07T21:27:35.415Z,66.13
2022-12-07T21:30:01.866Z,61.67
2022-12-07T21:32:28.790Z,71.40
2022-12-07T21:34:55.234Z,60.77
2022-12-07T21:37:21.719Z,62.17
2022-12-07T21:39:48.226Z,63.83
2022-12-07T21:42:14.702Z,66.07
2022-12-07T21:44:41.294Z,73.10
2022-12-07T21:47:07.842Z,68.67
2022-12-07T21:49:36.220Z,68.60
2022-12-07T21:52:04.352Z,68.47
2022-12-07T21:54:30.917Z,61.17
2022-12-07T21:56:57.409Z,64.73
2022-12-07T21:59:23.935Z,65.87
2022-12-07T22:01:50.972Z,56.57
2022-12-07T22:04:19.712Z,65.87
2022-12-07T22:06:47.167Z,72.63
2022-12-07T22:09:13.823Z,65.27
2022-12-07T22:11:40.295Z,65.67
2022-12-07T22:14:25.430Z,68.73
2022-12-07T22:16:52.479Z,67.07
2022-12-07T22:19:19.217Z,59.17
2022-12-07T22:21:45.914Z,62.77
2022-12-07T22:24:13.935Z,57.77
2022-12-07T22:26:41.230Z,45.00
2022-12-07T22:29:07.648Z,52.20
2022-12-07T22:31:34.252Z,67.93
2022-12-07T22:34:00.981Z,67.53
2022-12-07T22:36:29.267Z,60.47
2022-12-07T22:38:56.107Z,73.73
2022-12-07T22:41:27.286Z,56.03
2022-12-07T22:43:54.241Z,60.37
2022-12-07T22:46:21.031Z,58.27
2022-12-07T22:48:47.713Z,65.07
2022-12-07T22:51:22.053Z,52.97
2022-12-07T22:53:48.861Z,59.03
2022-12-07T22:56:15.337Z,56.13
2022-12-07T22:58:41.926Z,48.00
2022-12-07T23:01:09.007Z,59.00
2022-12-07T23:03:35.683Z,49.70
2022-12-07T23:06:06.730Z,51.83
2022-12-07T23:08:34.133Z,48.40
2022-12-07T23:11:00.593Z,59.27
2022-12-07T23:13:32.982Z,54.03
2022-12-07T23:16:00.220Z,46.70
2022-12-07T23:18:27.204Z,69.83
2022-12-07T23:20:57.661Z,52.43
2022-12-07T23:23:24.271Z,62.57
2022-12-07T23:25:50.839Z,70.47
2022-12-07T23:28:17.373Z,51.50
2022-12-07T23:30:44.186Z,55.57
2022-12-07T23:33:10.639Z,54.60
2022-12-07T23:35:37.155Z,49.20
2022-12-07T23:38:04.840Z,55.63
2022-12-07T23:40:31.336Z,47.10
2022-12-07T23:42:58.033Z,58.30
2022-12-07T23:45:24.640Z,56.83
2022-12-07T23:47:51.115Z,58.23
2022-12-07T23:50:17.675Z,60.07
2022-12-07T23:52:44.160Z,49.07
2022-12-07T23:55:10.633Z,49.33
2022-12-07T23:57:37.086Z,46.27
